Historyczne dane pomiarowe

Dodano dane terminowe – wersja testowa.

Dane z okresu 1951-2019

Wersja bazy: 1.34 [2019-03-16, lista zmian], aktualizacja planowana na 2019-04-15

Dane meteo z obszaru Polski uzyskane na podstawie danych udostępnionych przez Instytut Meteorologii i Gospodarki Wodnej – Państwowy Instytut Badawczy.

 

Wybierz Datę:    

       

TemperaturaWilgotnośćWiatrCiśnienieOpadyŚniegCzas trwania zjawisk
 Stacja t tx tn tng RH VA  wxwx mslp ppp RRR   cm mm wxwxwxwxwxwxwx
1983-08-14 11.1 16.2 6.7 5.6 82.8- 7.0 3.3---- 0.0------------
1983-08-13 15.0 21.0 11.3 10.1 73.8- 6.3 4.0---- 4.2------------
1983-08-12 17.4 25.2 9.6 8.5 73.3- 0.0 1.0---- 0.0------------
1983-08-11 17.1 23.8 9.3 8.2 79.8- 0.0 1.7---- 0.0------------
1983-08-10 18.3 25.0 12.3 11.5 73.3- 0.7 2.0---- 0.0------------
1983-08-09 18.4 23.9 14.6 13.3 75.8- 2.7 2.7---- 0.0------------
1983-08-08 16.3 18.8 13.9 13.0 92.5- 5.3 2.7---- 1.4------------
1983-08-07 12.1 14.8 8.2 7.6 96.0- 8.0 2.3---- 1.6------------
1983-08-06 12.8 15.9 10.2 9.8 85.0- 7.3 1.7---- 0.0------------
1983-08-05 10.1 13.2 8.0 7.5 92.3- 8.0 1.7---- 0.0------------
1983-08-04 9.8 11.7 8.9 8.6 89.8- 8.0 3.3---- 6.6------------
1983-08-03 13.8 18.8 11.1 11.0 93.3- 8.0 2.7---- 23.3------------
1983-08-02 19.2 27.4 18.0 16.2 81.0- 8.0 1.3---- 6.6------------
1983-08-01 24.1 30.6 12.4 12.1 40.3- 0.0 4.3---- 0.3------------
1983-07-31 18.0 27.8 7.0 5.8 62.0- 0.0 1.3---- 0.0------------
1983-07-30 20.2 24.4 16.5 14.8 61.0- 4.0 3.3---- 0.0------------
1983-07-29 18.9 24.0 13.7 11.8 68.0- 5.7 1.7---- 0.0------------
1983-07-28 22.3 29.7 18.3 17.5 65.8- 1.0 1.0---- 0.0------------
1983-07-27 23.2 34.6 11.8 10.7 53.5- 0.0 1.0---- 0.0------------
1983-07-26 18.2 29.1 7.3 6.6 62.3- 0.0 1.7---- 0.0------------
1983-07-25 16.4 22.3 11.1 10.2 68.5- 2.7 2.3---- 0.0------------
1983-07-24 17.7 25.3 8.4 7.3 78.5- 2.3 2.7---- 0.0------------
1983-07-23 19.0 24.1 12.8 11.8 65.0- 2.7 4.0---- 0.0------------
1983-07-22 13.2 19.1 6.8 5.2 85.5- 6.7 1.7---- 0.0------------
1983-07-21 12.0 14.9 7.8 6.3 58.3- 3.7 2.0---- 0.0------------
1983-07-20 15.1 23.1 11.8 11.7 81.5- 7.3 2.7---- 1.8------------
1983-07-19 22.2 28.6 15.7 14.0 68.5- 4.0 1.7---- 7.2------------
1983-07-18 22.2 31.2 12.6 10.4 55.0- 1.0 2.0---- 1.8------------
1983-07-17 21.2 27.8 11.7 10.4 62.3- 1.0 1.3---- 0.0------------
1983-07-16 18.8 27.9 9.6 8.5 81.3- 3.0 2.0---- 0.0------------
1983-07-15 19.6 24.9 11.8 10.2 67.8- 2.7 1.0---- 0.0------------
1983-07-14 17.4 19.9 14.9 13.5 78.8- 4.7 2.7---- 0.0------------
1983-07-13 18.2 27.3 11.2 10.1 82.3- 4.0 3.3---- 11.6------------
1983-07-12 20.0 27.2 14.5 12.6 70.0- 5.0 2.3---- 5.4------------
1983-07-11 18.9 27.1 10.5 8.9 66.5- 3.7 2.0---- 0.0------------
1983-07-10 19.4 26.9 8.9 7.5 63.0- 0.7 1.0---- 0.0------------
1983-07-09 18.9 26.3 7.3 6.5 64.0- 0.0 1.0---- 0.0------------
1983-07-08 19.9 25.6 11.7 11.7 48.3- 0.0 2.0---- 0.0------------
1983-07-07 20.8 27.8 11.3 9.5 65.3- 0.7 2.0---- 0.0------------
1983-07-06 19.8 27.9 10.3 9.3 63.3- 1.0 1.0---- 0.0------------
1983-07-05 18.4 24.8 10.8 9.6 68.8- 3.3 1.0---- 0.0------------
1983-07-04 18.0 24.5 9.0 8.2 61.8- 0.7 1.0---- 0.0------------
1983-07-03 16.6 22.7 8.2 6.9 66.3- 1.7 1.3---- 0.0------------
1983-07-02 16.6 19.7 13.7 11.1 76.3- 5.3 4.0---- 0.0------------
1983-07-01 17.8 23.8 10.2 8.6 66.8- 4.3 2.3---- 0.0------------
1983-06-30 17.0 22.4 8.6 7.8 62.8- 1.3 3.7---- 0.0------------
1983-06-29 13.2 18.2 5.2 3.7 59.0- 4.0 1.7---- 0.0------------
1983-06-28 14.7 18.3 12.2 10.7 69.5- 5.3 1.3---- 0.0------------
1983-06-27 19.1 24.1 15.1 13.6 69.3- 3.3 2.0---- 3.4------------
1983-06-26 19.2 23.8 12.7 11.5 80.3- 6.3 1.7---- 0.0------------
1983-06-25 20.9 27.2 12.2 11.5 57.3- 1.3 3.7---- 1.9------------
1983-06-24 17.2 25.1 6.1 4.8 60.5- 0.0 1.0---- 0.0------------
1983-06-23 13.2 20.5 3.3 1.4 66.0- 0.0 2.3---- 0.0------------
1983-06-22 15.2 19.1 11.8 9.5 62.3- 1.7 2.0---- 0.0------------
1983-06-21 17.4 23.2 10.4 9.2 70.0- 0.0 2.7---- 0.0------------
1983-06-20 15.8 18.9 12.6 11.8 82.5- 7.3 2.0---- 0.0------------
1983-06-19 12.0 14.0 9.7 6.7 94.0- 8.0 6.0---- 9.2------------
1983-06-18 9.5 13.8 5.3 3.7 87.8- 8.0 2.7---- 0.3------------
1983-06-17 9.6 12.0 7.6 6.1 74.8- 6.7 2.7---- 0.0------------
1983-06-16 9.2 12.8 7.6 3.6 82.3- 7.0 3.3---- 2.0------------
448.5 ms

 

Źródłem pochodzenia danych jest Instytut Meteorologii i Gospodarki Wodnej – Państwowy Instytut Badawczy. Dane Instytutu Meteorologii i Gospodarki Wodnej – Państwowego Instytutu Badawczego zostały przetworzone.

Dane źródłowe można odnaleźć na stronie https://dane.imgw.pl